Kristin D — C6XA6 — position and weather

sailwx.info

Track history (hours):
 
Tides and Currents Weather Stations Pressure Air Temp Water Temp Dewpoint Dewpoint Depression Visibility Wind Speed Wind Dir Waves Ship Positions

Kristin D

Last reported at 2014-Sep-21 06:31 UTC. Time now 2014-Sep-23 16:29 UTC.
Position N 59°07' E 004°53'.

Length 90 m; draft 3.7 m.

Type: Cargo ship. MMSI: 311003700.

Date/timePositionNaut miles runAvg speedWind from/ knotsBaromVisibWave heightAir tempDewpointWater temp
2014-Sep-21 06:31N 59°07' E 004°53'7 7.6
2014-Sep-21 05:33N 59°00' E 004°59'8 8.2
2014-Sep-21 04:33N 58°53' E 005°07'7 7.2
2014-Sep-21 03:33N 58°47' E 005°14'10 8.3
2014-Sep-21 02:23N 58°38' E 005°23'9 9.5
2014-Sep-21 01:30N 58°31' E 005°31'9 9.9
2014-Sep-21 00:33N 58°24' E 005°42'1110.7
2014-Sep-20 23:33N 58°17' E 005°58'10 9.6
2014-Sep-20 22:33N 58°11' E 006°13'66 9.5
2014-Sep-20 15:33N 58°04' E 008°18'1211.6
2014-Sep-20 14:33N 58°12' E 008°34'1211.0
2014-Sep-20 13:29N 58°21' E 008°47'3 0.4
2014-Sep-20 05:34N 58°24' E 008°48'7 6.5
2014-Sep-20 04:33N 58°27' E 008°60'1212.2
2014-Sep-20 03:32N 58°34' E 009°19'1313.1
2014-Sep-20 02:33N 58°42' E 009°39'1312.6
2014-Sep-20 01:33N 58°48' E 009°60'1212.2
2014-Sep-20 00:33N 58°55' E 010°19'1111.5
2014-Sep-19 23:33N 59°03' E 010°36'1110.5
2014-Sep-19 22:33N 59°13' E 010°36'1212.0
2014-Sep-19 21:33N 59°25' E 010°33'1212.0
2014-Sep-19 20:33N 59°37' E 010°37'1411.6
2014-Sep-19 19:19N 59°51' E 010°37'4 5.7
2014-Sep-19 18:33N 59°53' E 010°45'0 0.0
2014-Sep-19 17:33N 59°53' E 010°45'0 0.0
2014-Sep-19 16:33N 59°53' E 010°45'0 0.0
2014-Sep-19 15:33N 59°53' E 010°45'0 0.0
2014-Sep-19 14:33N 59°53' E 010°45'0 0.0
2014-Sep-19 13:21N 59°53' E 010°45'0 0.0
2014-Sep-19 12:09N 59°53' E 010°45'0 0.0
2014-Sep-19 11:21N 59°53' E 010°45'0 0.0
2014-Sep-19 10:27N 59°53' E 010°45'0 0.0
2014-Sep-19 09:27N 59°53' E 010°45'0 0.0
2014-Sep-19 08:26N 59°53' E 010°45'0 0.0
2014-Sep-19 07:26N 59°53' E 010°45'0 0.0
2014-Sep-19 06:26N 59°53' E 010°45'0 0.0
2014-Sep-19 05:26N 59°53' E 010°45'0 0.0
2014-Sep-19 04:29N 59°53' E 010°45'0 0.0
2014-Sep-19 03:29N 59°53' E 010°45'0 0.0
2014-Sep-19 02:29N 59°53' E 010°45'0 0.0
2014-Sep-19 01:32N 59°53' E 010°45'0 0.0
2014-Sep-19 00:32N 59°53' E 010°45'16 7.5
2014-Sep-18 22:26N 59°38' E 010°38'1211.7
2014-Sep-18 21:22N 59°26' E 010°34'1012.0
2014-Sep-18 20:33N 59°16' E 010°38'1211.9
2014-Sep-18 19:33N 59°05' E 010°48'5 5.2
2014-Sep-18 18:33N 59°06' E 010°58'6 5.6
2014-Sep-18 17:33N 59°11' E 010°57'0 0.0
2014-Sep-18 16:33N 59°11' E 010°57'0 0.0
2014-Sep-18 15:33N 59°11' E 010°57'0 0.0
2014-Sep-18 14:30N 59°11' E 010°57'0 0.0
2014-Sep-18 13:33N 59°11' E 010°57'0 0.0
2014-Sep-18 12:33N 59°11' E 010°57'0 0.0
2014-Sep-18 11:33N 59°11' E 010°57'0 0.0
2014-Sep-18 10:33N 59°11' E 010°57'0 0.0
2014-Sep-18 09:33N 59°11' E 010°57'0 0.0
2014-Sep-18 08:33N 59°11' E 010°57'0 0.0
2014-Sep-18 07:33N 59°11' E 010°57'0 0.0
2014-Sep-18 06:33N 59°11' E 010°57'0 0.0
2014-Sep-18 05:33N 59°11' E 010°57'0 0.0
2014-Sep-18 04:32N 59°11' E 010°57'0 0.0
2014-Sep-18 03:32N 59°11' E 010°57'0 0.0
2014-Sep-18 02:33N 59°11' E 010°57'9 9.1
2014-Sep-18 01:33N 59°02' E 010°58'9 9.0
2014-Sep-18 00:33N 59°01' E 010°41'1110.8
2014-Sep-17 23:33N 58°58' E 010°21'1211.6
2014-Sep-17 22:33N 58°55' E 009°59'11 9.3
2014-Sep-17 21:21N 59°02' E 009°43'7 7.7
2014-Sep-17 20:29N 59°09' E 009°39'3 2.1
2014-Sep-17 19:07N 59°11' E 009°37'0 0.0
2014-Sep-17 18:19N 59°11' E 009°37'0 0.0
2014-Sep-17 17:22N 59°11' E 009°37'0 0.0
2014-Sep-17 16:25N 59°11' E 009°37'0 0.0
2014-Sep-17 14:25N 59°11' E 009°37'0 0.0
2014-Sep-17 12:13N 59°11' E 009°37'0 0.0
2014-Sep-17 11:25N 59°11' E 009°37'0 0.0
2014-Sep-17 10:28N 59°11' E 009°37'0 0.0
2014-Sep-17 09:25N 59°11' E 009°37'0 0.0
2014-Sep-17 08:25N 59°11' E 009°37'0 0.0
2014-Sep-17 07:25N 59°11' E 009°37'0 0.0
2014-Sep-17 06:31N 59°11' E 009°37'0 0.0
2014-Sep-17 05:28N 59°11' E 009°37'0 0.0
2014-Sep-17 04:31N 59°11' E 009°38'0 0.0
2014-Sep-17 03:31N 59°11' E 009°37'0 0.0
2014-Sep-17 01:31N 59°11' E 009°37'0 0.0
2014-Sep-17 00:19N 59°11' E 009°37'0 0.0
2014-Sep-16 22:31N 59°11' E 009°37'0 0.0
2014-Sep-16 21:19N 59°11' E 009°37'0 0.0
2014-Sep-16 20:18N 59°11' E 009°37'0 0.2
2014-Sep-16 19:33N 59°11' E 009°38'5 4.4
2014-Sep-16 18:30N 59°07' E 009°36'17 8.9
2014-Sep-16 16:33N 58°57' E 010°04'6 0.4
2014-Sep-16 03:27N 59°03' E 010°03'77 1.7
2014-Sep-14 05:33N 57°48' E 010°41'9 8.9
2014-Sep-14 04:33N 57°39' E 010°45'1110.9
2014-Sep-14 03:32N 57°28' E 010°44'1111.0
2014-Sep-14 02:32N 57°17' E 010°43'131 8.6
2014-Sep-13 11:25N 55°11' E 009°46'8 9.8
2014-Sep-13 10:33N 55°04' E 009°36'6 3.1
2014-Sep-13 08:33N 55°02' E 009°26'0 0.0
2014-Sep-13 07:33N 55°02' E 009°26'6 6.2
2014-Sep-13 06:33N 55°04' E 009°36'1110.9
2014-Sep-13 05:33N 55°08' E 009°54'1010.5
2014-Sep-13 04:34N 54°60' E 010°06'1110.9
2014-Sep-13 03:34N 54°50' E 010°14'29 9.7
2014-Sep-13 00:34N 54°36' E 010°58'1111.2
2014-Sep-12 23:34N 54°35' E 011°17'1212.1
2014-Sep-12 22:34N 54°30' E 011°36'1111.1
2014-Sep-12 21:32N 54°27' E 011°55'10 9.9
2014-Sep-12 20:34N 54°30' E 012°11'1110.7
2014-Sep-12 19:34N 54°39' E 012°21'1211.5
2014-Sep-12 18:34N 54°45' E 012°37'1111.1
2014-Sep-12 17:33N 54°50' E 012°55'1311.2
2014-Sep-12 16:23N 54°55' E 013°16'911.3
2014-Sep-12 15:34N 54°59' E 013°31'1111.1
2014-Sep-12 14:34N 55°01' E 013°50'1111.0
2014-Sep-12 13:31N 55°06' E 014°08'1111.3
2014-Sep-12 12:33N 55°15' E 014°20'1111.4
2014-Sep-12 11:32N 55°24' E 014°32'1111.0
2014-Sep-12 10:33N 55°30' E 014°48'1111.3
2014-Sep-12 09:33N 55°36' E 015°05'1311.3
2014-Sep-12 08:24N 55°43' E 015°24'11411.1
2014-Sep-11 22:10N 56°47' E 018°14'1011.3
2014-Sep-11 21:18N 56°53' E 018°28'  
Track history (hours):
 
Tides and Currents Weather Stations Pressure Air Temp Water Temp Dewpoint Dewpoint Depression Visibility Wind Speed Wind Dir Waves Ship Positions

Kristin D

Last reported at 2014-Sep-21 06:31 UTC. Time now 2014-Sep-23 16:29 UTC.
Position N 59°07' E 004°53'.

Length 90 m; draft 3.7 m.

Type: Cargo ship. MMSI: 311003700.

Date/timePositionNaut miles runAvg speedWind from/ knotsBaromVisibWave heightAir tempDewpointWater temp
2014-Sep-21 06:31N 59°07' E 004°53'7 7.6
2014-Sep-21 05:33N 59°00' E 004°59'8 8.2
2014-Sep-21 04:33N 58°53' E 005°07'7 7.2
2014-Sep-21 03:33N 58°47' E 005°14'10 8.3
2014-Sep-21 02:23N 58°38' E 005°23'9 9.5
2014-Sep-21 01:30N 58°31' E 005°31'9 9.9
2014-Sep-21 00:33N 58°24' E 005°42'1110.7
2014-Sep-20 23:33N 58°17' E 005°58'10 9.6
2014-Sep-20 22:33N 58°11' E 006°13'66 9.5
2014-Sep-20 15:33N 58°04' E 008°18'1211.6
2014-Sep-20 14:33N 58°12' E 008°34'1211.0
2014-Sep-20 13:29N 58°21' E 008°47'3 0.4
2014-Sep-20 05:34N 58°24' E 008°48'7 6.5
2014-Sep-20 04:33N 58°27' E 008°60'1212.2
2014-Sep-20 03:32N 58°34' E 009°19'1313.1
2014-Sep-20 02:33N 58°42' E 009°39'1312.6
2014-Sep-20 01:33N 58°48' E 009°60'1212.2
2014-Sep-20 00:33N 58°55' E 010°19'1111.5
2014-Sep-19 23:33N 59°03' E 010°36'1110.5
2014-Sep-19 22:33N 59°13' E 010°36'1212.0
2014-Sep-19 21:33N 59°25' E 010°33'1212.0
2014-Sep-19 20:33N 59°37' E 010°37'1411.6
2014-Sep-19 19:19N 59°51' E 010°37'4 5.7
2014-Sep-19 18:33N 59°53' E 010°45'0 0.0
2014-Sep-19 17:33N 59°53' E 010°45'0 0.0
2014-Sep-19 16:33N 59°53' E 010°45'0 0.0
2014-Sep-19 15:33N 59°53' E 010°45'0 0.0
2014-Sep-19 14:33N 59°53' E 010°45'0 0.0
2014-Sep-19 13:21N 59°53' E 010°45'0 0.0
2014-Sep-19 12:09N 59°53' E 010°45'0 0.0
2014-Sep-19 11:21N 59°53' E 010°45'0 0.0
2014-Sep-19 10:27N 59°53' E 010°45'0 0.0
2014-Sep-19 09:27N 59°53' E 010°45'0 0.0
2014-Sep-19 08:26N 59°53' E 010°45'0 0.0
2014-Sep-19 07:26N 59°53' E 010°45'0 0.0
2014-Sep-19 06:26N 59°53' E 010°45'0 0.0
2014-Sep-19 05:26N 59°53' E 010°45'0 0.0
2014-Sep-19 04:29N 59°53' E 010°45'0 0.0
2014-Sep-19 03:29N 59°53' E 010°45'0 0.0
2014-Sep-19 02:29N 59°53' E 010°45'0 0.0
2014-Sep-19 01:32N 59°53' E 010°45'0 0.0
2014-Sep-19 00:32N 59°53' E 010°45'16 7.5
2014-Sep-18 22:26N 59°38' E 010°38'1211.7
2014-Sep-18 21:22N 59°26' E 010°34'1012.0
2014-Sep-18 20:33N 59°16' E 010°38'1211.9
2014-Sep-18 19:33N 59°05' E 010°48'5 5.2
2014-Sep-18 18:33N 59°06' E 010°58'6 5.6
2014-Sep-18 17:33N 59°11' E 010°57'0 0.0
2014-Sep-18 16:33N 59°11' E 010°57'0 0.0
2014-Sep-18 15:33N 59°11' E 010°57'0 0.0
2014-Sep-18 14:30N 59°11' E 010°57'0 0.0
2014-Sep-18 13:33N 59°11' E 010°57'0 0.0
2014-Sep-18 12:33N 59°11' E 010°57'0 0.0
2014-Sep-18 11:33N 59°11' E 010°57'0 0.0
2014-Sep-18 10:33N 59°11' E 010°57'0 0.0
2014-Sep-18 09:33N 59°11' E 010°57'0 0.0
2014-Sep-18 08:33N 59°11' E 010°57'0 0.0
2014-Sep-18 07:33N 59°11' E 010°57'0 0.0
2014-Sep-18 06:33N 59°11' E 010°57'0 0.0
2014-Sep-18 05:33N 59°11' E 010°57'0 0.0
2014-Sep-18 04:32N 59°11' E 010°57'0 0.0
2014-Sep-18 03:32N 59°11' E 010°57'0 0.0
2014-Sep-18 02:33N 59°11' E 010°57'9 9.1
2014-Sep-18 01:33N 59°02' E 010°58'9 9.0
2014-Sep-18 00:33N 59°01' E 010°41'1110.8
2014-Sep-17 23:33N 58°58' E 010°21'1211.6
2014-Sep-17 22:33N 58°55' E 009°59'11 9.3
2014-Sep-17 21:21N 59°02' E 009°43'7 7.7
2014-Sep-17 20:29N 59°09' E 009°39'3 2.1
2014-Sep-17 19:07N 59°11' E 009°37'0 0.0
2014-Sep-17 18:19N 59°11' E 009°37'0 0.0
2014-Sep-17 17:22N 59°11' E 009°37'0 0.0
2014-Sep-17 16:25N 59°11' E 009°37'0 0.0
2014-Sep-17 14:25N 59°11' E 009°37'0 0.0
2014-Sep-17 12:13N 59°11' E 009°37'0 0.0
2014-Sep-17 11:25N 59°11' E 009°37'0 0.0
2014-Sep-17 10:28N 59°11' E 009°37'0 0.0
2014-Sep-17 09:25N 59°11' E 009°37'0 0.0
2014-Sep-17 08:25N 59°11' E 009°37'0 0.0
2014-Sep-17 07:25N 59°11' E 009°37'0 0.0
2014-Sep-17 06:31N 59°11' E 009°37'0 0.0
2014-Sep-17 05:28N 59°11' E 009°37'0 0.0
2014-Sep-17 04:31N 59°11' E 009°38'0 0.0
2014-Sep-17 03:31N 59°11' E 009°37'0 0.0
2014-Sep-17 01:31N 59°11' E 009°37'0 0.0
2014-Sep-17 00:19N 59°11' E 009°37'0 0.0
2014-Sep-16 22:31N 59°11' E 009°37'0 0.0
2014-Sep-16 21:19N 59°11' E 009°37'0 0.0
2014-Sep-16 20:18N 59°11' E 009°37'0 0.2
2014-Sep-16 19:33N 59°11' E 009°38'5 4.4
2014-Sep-16 18:30N 59°07' E 009°36'17 8.9
2014-Sep-16 16:33N 58°57' E 010°04'6 0.4
2014-Sep-16 03:27N 59°03' E 010°03'77 1.7
2014-Sep-14 05:33N 57°48' E 010°41'9 8.9
2014-Sep-14 04:33N 57°39' E 010°45'1110.9
2014-Sep-14 03:32N 57°28' E 010°44'1111.0
2014-Sep-14 02:32N 57°17' E 010°43'131 8.6
2014-Sep-13 11:25N 55°11' E 009°46'8 9.8
2014-Sep-13 10:33N 55°04' E 009°36'6 3.1
2014-Sep-13 08:33N 55°02' E 009°26'0 0.0
2014-Sep-13 07:33N 55°02' E 009°26'6 6.2
2014-Sep-13 06:33N 55°04' E 009°36'1110.9
2014-Sep-13 05:33N 55°08' E 009°54'1010.5
2014-Sep-13 04:34N 54°60' E 010°06'1110.9
2014-Sep-13 03:34N 54°50' E 010°14'29 9.7
2014-Sep-13 00:34N 54°36' E 010°58'1111.2
2014-Sep-12 23:34N 54°35' E 011°17'1212.1
2014-Sep-12 22:34N 54°30' E 011°36'1111.1
2014-Sep-12 21:32N 54°27' E 011°55'10 9.9
2014-Sep-12 20:34N 54°30' E 012°11'1110.7
2014-Sep-12 19:34N 54°39' E 012°21'1211.5
2014-Sep-12 18:34N 54°45' E 012°37'1111.1
2014-Sep-12 17:33N 54°50' E 012°55'1311.2
2014-Sep-12 16:23N 54°55' E 013°16'911.3
2014-Sep-12 15:34N 54°59' E 013°31'1111.1
2014-Sep-12 14:34N 55°01' E 013°50'1111.0
2014-Sep-12 13:31N 55°06' E 014°08'1111.3
2014-Sep-12 12:33N 55°15' E 014°20'1111.4
2014-Sep-12 11:32N 55°24' E 014°32'1111.0
2014-Sep-12 10:33N 55°30' E 014°48'1111.3
2014-Sep-12 09:33N 55°36' E 015°05'1311.3
2014-Sep-12 08:24N 55°43' E 015°24'11411.1
2014-Sep-11 22:10N 56°47' E 018°14'1011.3
2014-Sep-11 21:18N 56°53' E 018°28'  

Dump ship's entire track history